B Gas Master — 9HA2718 — position and weather

sailwx.info

Track history (hours):
 
Tides and Currents Weather Stations Pressure Air Temp Water Temp Dewpoint Dewpoint Depression Visibility Wind Speed Wind Dir Waves Ship Positions

B Gas Master

Last reported at 2018-Apr-23 15:00 UTC. Time now 2018-Apr-23 15:22 UTC.
Position N 53°40' E 014°32'.

Length 88 m; draft 5.5 m.

Type: Ship (hazmat cat C). MMSI: 215389000.

Date/timePositionNaut miles runAvg speedWind from/ knotsBaromVisibWave heightAir tempDewpointWater temp
2018-Apr-23 15:00N 53°40' E 014°32'510.9
2018-Apr-23 14:30N 53°35' E 014°36'510.1
2018-Apr-23 13:59N 53°30' E 014°37'4 8.2
2018-Apr-23 13:29N 53°26' E 014°36'1 2.0
2018-Apr-23 12:56N 53°25' E 014°35'0 0.0
2018-Apr-23 12:26N 53°25' E 014°35'0 0.0
2018-Apr-23 11:59N 53°25' E 014°35'0 0.0
2018-Apr-23 11:26N 53°25' E 014°35'0 0.0
2018-Apr-23 10:56N 53°25' E 014°35'0 0.0
2018-Apr-23 10:26N 53°25' E 014°35'0 0.0
2018-Apr-23 09:56N 53°25' E 014°35'0 0.0
2018-Apr-23 09:26N 53°25' E 014°35'0 0.0
2018-Apr-23 08:56N 53°25' E 014°35'0 0.0
2018-Apr-23 08:26N 53°25' E 014°35'0 0.0
2018-Apr-23 07:56N 53°25' E 014°35'0 0.0
2018-Apr-23 07:26N 53°25' E 014°35'0 0.0
2018-Apr-23 06:56N 53°25' E 014°35'0 0.0
2018-Apr-23 06:26N 53°25' E 014°35'0 0.0
2018-Apr-23 05:59N 53°25' E 014°35'0 0.0
2018-Apr-23 05:29N 53°25' E 014°35'0 0.0
2018-Apr-23 04:59N 53°25' E 014°35'0 0.0
2018-Apr-23 04:29N 53°25' E 014°35'0 0.0
2018-Apr-23 03:59N 53°25' E 014°35'0 0.0
2018-Apr-23 03:26N 53°25' E 014°35'0 0.0
2018-Apr-23 02:56N 53°25' E 014°35'0 0.0
2018-Apr-23 02:26N 53°25' E 014°35'0 0.0
2018-Apr-23 01:56N 53°25' E 014°35'0 0.0
2018-Apr-23 01:29N 53°25' E 014°35'0 0.0
2018-Apr-23 00:59N 53°25' E 014°35'0 0.0
2018-Apr-23 00:29N 53°25' E 014°35'0 0.0
2018-Apr-22 23:56N 53°25' E 014°35'0 0.1
2018-Apr-22 23:27N 53°25' E 014°35'1 1.0
2018-Apr-22 22:57N 53°25' E 014°36'2 3.9
2018-Apr-22 22:27N 53°27' E 014°36'4 8.3
2018-Apr-22 21:57N 53°31' E 014°38'4 9.3
2018-Apr-22 21:30N 53°35' E 014°36'5 9.8
2018-Apr-22 21:01N 53°39' E 014°33'510.2
2018-Apr-22 20:30N 53°43' E 014°28'611.0
2018-Apr-22 20:00N 53°47' E 014°22'8310.6
2018-Apr-22 12:08N 55°02' E 013°17'411.5
2018-Apr-22 11:49N 55°04' E 013°12'411.6
2018-Apr-22 11:26N 55°07' E 013°07'711.6
2018-Apr-22 10:52N 55°11' E 012°57'411.3
2018-Apr-22 10:29N 55°14' E 012°52'511.2
2018-Apr-22 10:00N 55°17' E 012°44'5 9.3
2018-Apr-22 09:31N 55°20' E 012°39'610.9
2018-Apr-22 09:00N 55°26' E 012°40'510.9
2018-Apr-22 08:31N 55°31' E 012°42'5 9.6
2018-Apr-22 08:00N 55°36' E 012°42'510.0
2018-Apr-22 07:30N 55°41' E 012°41'611.6
2018-Apr-22 07:00N 55°47' E 012°42'611.1
2018-Apr-22 06:30N 55°52' E 012°40'611.2
2018-Apr-22 06:00N 55°58' E 012°38'611.2
2018-Apr-22 05:30N 56°03' E 012°38'611.7
2018-Apr-22 05:00N 56°07' E 012°30'4011.2
2018-Apr-22 01:26N 56°42' E 011°53'512.2
2018-Apr-22 00:59N 56°47' E 011°50'612.2
2018-Apr-22 00:27N 56°53' E 011°47'512.1
2018-Apr-22 00:00N 56°58' E 011°43'612.2
2018-Apr-21 23:30N 57°04' E 011°40'1012.1
2018-Apr-21 22:40N 57°14' E 011°34'212.0
2018-Apr-21 22:30N 57°15' E 011°32'612.1
2018-Apr-21 22:00N 57°21' E 011°28'612.1
2018-Apr-21 21:31N 57°27' E 011°25'611.9
2018-Apr-21 21:00N 57°32' E 011°22'611.8
2018-Apr-21 20:30N 57°38' E 011°19'611.3
2018-Apr-21 20:00N 57°44' E 011°18'611.7
2018-Apr-21 19:30N 57°49' E 011°16'611.5
2018-Apr-21 19:01N 57°55' E 011°14'510.9
2018-Apr-21 18:30N 58°00' E 011°12'510.4
2018-Apr-21 18:00N 58°06' E 011°13'510.4
2018-Apr-21 17:30N 58°11' E 011°13'510.2
2018-Apr-21 17:01N 58°16' E 011°15'510.2
2018-Apr-21 16:30N 58°19' E 011°22'3 0.1
2018-Apr-20 19:07N 58°21' E 011°26'0 2.2
2018-Apr-20 18:59N 58°21' E 011°26'4 8.6
2018-Apr-20 18:30N 58°19' E 011°20'611.4
2018-Apr-20 18:00N 58°14' E 011°13'2 5.0
2018-Apr-20 17:30N 58°12' E 011°13'0 0.4
2018-Apr-20 17:00N 58°12' E 011°13'0 0.0
2018-Apr-20 16:30N 58°12' E 011°13'0 0.0
2018-Apr-20 16:00N 58°12' E 011°13'0 0.0
2018-Apr-20 15:30N 58°12' E 011°13'0 0.0
2018-Apr-20 15:00N 58°12' E 011°13'0 0.0
2018-Apr-20 14:30N 58°12' E 011°13'0 0.0
2018-Apr-20 14:00N 58°12' E 011°13'0 0.0
2018-Apr-20 13:30N 58°12' E 011°13'0 0.0
2018-Apr-20 12:59N 58°12' E 011°13'0 0.0
2018-Apr-20 12:30N 58°12' E 011°13'0 0.0
2018-Apr-20 12:00N 58°12' E 011°13'0 0.0
2018-Apr-20 11:30N 58°12' E 011°13'0 0.0
2018-Apr-20 11:00N 58°12' E 011°13'0 0.0
2018-Apr-20 10:26N 58°12' E 011°13'0 0.0
2018-Apr-20 10:00N 58°12' E 011°13'0 0.0
2018-Apr-20 09:30N 58°12' E 011°13'0 0.0
2018-Apr-20 09:00N 58°12' E 011°13'0 0.0
2018-Apr-20 08:30N 58°12' E 011°13'0 0.0
2018-Apr-20 08:00N 58°12' E 011°13'0 0.0
2018-Apr-20 07:30N 58°12' E 011°13'0 0.0
2018-Apr-20 07:00N 58°12' E 011°13'0 0.0
2018-Apr-20 06:30N 58°12' E 011°13'0 0.0
2018-Apr-20 05:59N 58°12' E 011°13'0 0.0
2018-Apr-20 05:29N 58°12' E 011°13'0 0.0
2018-Apr-20 05:00N 58°12' E 011°13'0 0.0
2018-Apr-20 04:30N 58°12' E 011°13'0 0.0
2018-Apr-20 04:00N 58°12' E 011°13'0 0.0
2018-Apr-20 03:30N 58°12' E 011°13'0 0.0
2018-Apr-20 03:00N 58°12' E 011°13'0 0.0
2018-Apr-20 02:30N 58°12' E 011°13'0 0.0
2018-Apr-20 02:00N 58°12' E 011°13'0 0.0
2018-Apr-20 01:30N 58°12' E 011°13'0 0.0
2018-Apr-20 00:59N 58°12' E 011°13'0 0.0
2018-Apr-20 00:30N 58°12' E 011°13'0 0.0
2018-Apr-20 00:00N 58°12' E 011°13'0 0.0
2018-Apr-19 23:30N 58°12' E 011°13'0 0.0
2018-Apr-19 23:00N 58°12' E 011°13'0 0.0
2018-Apr-19 22:30N 58°12' E 011°13'0 0.0
2018-Apr-19 22:00N 58°12' E 011°13'0 0.0
2018-Apr-19 21:30N 58°12' E 011°13'0 0.0
2018-Apr-19 21:00N 58°12' E 011°13'0 0.0
2018-Apr-19 20:30N 58°12' E 011°13'0 0.0
2018-Apr-19 20:00N 58°12' E 011°13'0 0.0
2018-Apr-19 19:30N 58°12' E 011°13'0 0.0
2018-Apr-19 19:00N 58°12' E 011°13'0 0.0
2018-Apr-19 18:30N 58°12' E 011°13'0 0.0
2018-Apr-19 18:00N 58°12' E 011°13'0 0.0
2018-Apr-19 17:30N 58°12' E 011°13'0 0.0
2018-Apr-19 17:00N 58°12' E 011°13'0 0.0
2018-Apr-19 16:30N 58°12' E 011°13'0 0.0
2018-Apr-19 16:00N 58°12' E 011°13'0 0.0
2018-Apr-19 15:30N 58°12' E 011°13'0 0.0
2018-Apr-19 15:00N 58°12' E 011°13'0 0.0
2018-Apr-19 14:30N 58°12' E 011°13'0 0.0
2018-Apr-19 14:00N 58°12' E 011°13'0 0.0
2018-Apr-19 13:30N 58°12' E 011°13'0 0.0
2018-Apr-19 13:00N 58°12' E 011°13'0 0.0
2018-Apr-19 12:30N 58°12' E 011°13'0 0.0
2018-Apr-19 12:00N 58°12' E 011°13'0 0.0
2018-Apr-19 11:30N 58°12' E 011°13'0 0.0
2018-Apr-19 11:00N 58°12' E 011°13'0 0.4
2018-Apr-19 10:30N 58°12' E 011°13'4 7.7
2018-Apr-19 10:00N 58°11' E 011°06'611.6
2018-Apr-19 09:30N 58°08' E 010°56'611.4
2018-Apr-19 09:00N 58°05' E 010°48'612.4
2018-Apr-19 08:30N 58°02' E 010°38'612.7
2018-Apr-19 08:00N 57°58' E 010°28'612.9
2018-Apr-19 07:30N 57°55' E 010°18'612.7
2018-Apr-19 07:00N 57°51' E 010°08'612.3
2018-Apr-19 06:30N 57°46' E 010°01'612.4
2018-Apr-19 06:00N 57°45' E 009°50'812.8
2018-Apr-19 05:24N 57°40' E 009°37'712.7
2018-Apr-19 04:50N 57°36' E 009°27'612.5
2018-Apr-19 04:21N 57°33' E 009°17'512.7
2018-Apr-19 03:57N 57°30' E 009°09'1412.9
2018-Apr-19 02:50N 57°22' E 008°47'11212.3
2018-Apr-18 17:41N 55°48' E 006°54'312.7
2018-Apr-18 17:28N 55°46' E 006°52'1012.4
2018-Apr-18 16:39N 55°37' E 006°43'312.3
2018-Apr-18 16:25N 55°34' E 006°40'12912.5
2018-Apr-18 06:02N 53°41' E 004°53'113.3
2018-Apr-18 06:00N 53°40' E 004°53'713.7
2018-Apr-18 05:30N 53°34' E 004°48'713.3
2018-Apr-18 05:00N 53°28' E 004°44'713.3
2018-Apr-18 04:30N 53°22' E 004°40'713.1
2018-Apr-18 03:59N 53°16' E 004°35'613.0
2018-Apr-18 03:30N 53°10' E 004°30'612.4
2018-Apr-18 03:00N 53°05' E 004°25'612.1
2018-Apr-18 02:30N 52°60' E 004°20'612.0
2018-Apr-18 02:00N 52°54' E 004°16'611.6
2018-Apr-18 01:30N 52°49' E 004°11'611.5
2018-Apr-18 00:58N 52°44' E 004°06'611.4
2018-Apr-18 00:28N 52°39' E 003°60'511.3
2018-Apr-18 00:00N 52°35' E 003°54'2410.5
2018-Apr-17 21:45N 52°17' E 003°30'310.5
2018-Apr-17 21:29N 52°14' E 003°29'2410.9
2018-Apr-17 19:18N 51°51' E 003°21'411.9
2018-Apr-17 18:58N 51°47' E 003°18'510.6
2018-Apr-17 18:27N 51°42' E 003°17'612.4
2018-Apr-17 17:59N 51°37' E 003°22'613.2
2018-Apr-17 17:30N 51°31' E 003°26'713.1
2018-Apr-17 17:00N 51°27' E 003°33'4 8.2
2018-Apr-17 16:30N 51°27' E 003°40'511.0
2018-Apr-17 16:00N 51°22' E 003°45'611.2
2018-Apr-17 15:30N 51°22' E 003°54'5 9.8
2018-Apr-17 15:00N 51°26' E 003°58'3 6.9
2018-Apr-17 14:30N 51°23' E 004°02'4 7.4
2018-Apr-17 14:00N 51°22' E 004°08'3 6.2
2018-Apr-17 13:30N 51°22' E 004°13'3 6.3
2018-Apr-17 13:01N 51°21' E 004°17'0 0.0
2018-Apr-17 12:30N 51°21' E 004°17'0 0.0
2018-Apr-17 12:00N 51°21' E 004°17'0 0.0
2018-Apr-17 11:31N 51°21' E 004°17'1 1.5
2018-Apr-17 11:00N 51°20' E 004°18'3 5.5
2018-Apr-17 10:30N 51°18' E 004°20'2 3.9
2018-Apr-17 10:00N 51°16' E 004°20'0 0.1
2018-Apr-17 09:30N 51°16' E 004°20'0 0.0
2018-Apr-17 09:01N 51°16' E 004°20'0 0.0
2018-Apr-17 08:31N 51°16' E 004°20'0 0.0
2018-Apr-17 07:58N 51°16' E 004°20'0 0.0
2018-Apr-17 07:31N 51°16' E 004°20'0 0.0
2018-Apr-17 06:54N 51°16' E 004°20'0 0.0
2018-Apr-17 06:30N 51°16' E 004°20'0 0.0
2018-Apr-17 06:01N 51°16' E 004°20'0 0.0
2018-Apr-17 05:31N 51°16' E 004°20'0 0.0
2018-Apr-17 05:01N 51°16' E 004°20'0 0.0
2018-Apr-17 04:31N 51°16' E 004°20'0 0.0
2018-Apr-17 04:00N 51°16' E 004°20'0 0.0
2018-Apr-17 03:30N 51°16' E 004°20'0 0.0
2018-Apr-17 03:01N 51°16' E 004°20'0 0.0
2018-Apr-17 02:28N 51°16' E 004°20'0 0.0
2018-Apr-17 02:01N 51°16' E 004°20'0 0.0
2018-Apr-17 01:28N 51°16' E 004°20'0 0.0
2018-Apr-17 01:00N 51°16' E 004°20'0 0.0
2018-Apr-17 00:31N 51°16' E 004°20'0 0.0
2018-Apr-16 23:52N 51°16' E 004°20'0 0.0
2018-Apr-16 23:27N 51°16' E 004°20'0 0.0
2018-Apr-16 23:01N 51°16' E 004°20'0 0.0
2018-Apr-16 22:27N 51°16' E 004°20'0 0.0
2018-Apr-16 22:00N 51°16' E 004°20'0 0.0
2018-Apr-16 21:28N 51°16' E 004°20'0 0.0
2018-Apr-16 21:00N 51°16' E 004°20'0 0.0
2018-Apr-16 20:31N 51°16' E 004°20'0 0.0
2018-Apr-16 20:01N 51°16' E 004°20'0 0.0
2018-Apr-16 19:30N 51°16' E 004°20'0 0.0
2018-Apr-16 18:57N 51°16' E 004°20'0 0.0
2018-Apr-16 18:31N 51°16' E 004°20'0 0.0
2018-Apr-16 17:54N 51°16' E 004°20'1 2.4
2018-Apr-16 17:30N 51°17' E 004°20'0 0.0
2018-Apr-16 17:00N 51°17' E 004°20'1 2.2
2018-Apr-16 16:30N 51°17' E 004°19'3 6.6
2018-Apr-16 16:00N 51°20' E 004°16'5 9.3
2018-Apr-16 15:30N 51°23' E 004°10'510.2
2018-Apr-16 14:59N 51°24' E 004°02'3 5.7
2018-Apr-16 14:29N 51°24' E 003°57'511.6
2018-Apr-16 14:00N 51°21' E 003°50'611.3
2018-Apr-16 13:30N 51°23' E 003°42'5 9.8
2018-Apr-16 13:00N 51°26' E 003°35'4 8.7
2018-Apr-16 12:30N 51°29' E 003°30'5 9.6
2018-Apr-16 12:00N 51°33' E 003°25'5 9.3
2018-Apr-16 11:30N 51°37' E 003°22'610.9
2018-Apr-16 10:55N 51°43' E 003°18'4 2.8
2018-Apr-16 09:36N 51°46' E 003°20'0 0.0
2018-Apr-16 09:18N 51°46' E 003°20'0 0.0
2018-Apr-16 08:59N 51°46' E 003°20'0 0.0
2018-Apr-16 08:29N 51°46' E 003°20'0 0.0
2018-Apr-16 07:35N 51°46' E 003°20'0 0.5
2018-Apr-16 07:29N 51°46' E 003°20'0 0.2
2018-Apr-16 07:01N 51°46' E 003°20'0 0.0
2018-Apr-16 06:27N 51°46' E 003°20'0 0.0
2018-Apr-16 05:53N 51°46' E 003°20'0 0.0
2018-Apr-16 05:27N 51°46' E 003°20'0 0.0
2018-Apr-16 04:57N 51°46' E 003°20'0 0.0
2018-Apr-16 04:30N 51°46' E 003°20'0 0.0
2018-Apr-16 03:58N 51°46' E 003°20'0 0.0
2018-Apr-16 03:23N 51°46' E 003°20'0 0.0
2018-Apr-16 02:51N 51°46' E 003°20'0 0.0
2018-Apr-16 02:28N 51°46' E 003°20'0 0.1
2018-Apr-16 01:40N 51°46' E 003°20'1 4.3
2018-Apr-16 01:30N 51°46' E 003°19'7 9.7
2018-Apr-16 00:45N 51°54' E 003°18'310.3
2018-Apr-16 00:25N 51°57' E 003°19'510.9
2018-Apr-15 23:59N 52°02' E 003°20'6611.8
2018-Apr-15 18:23N 53°01' E 004°07'511.1
2018-Apr-15 17:58N 53°04' E 004°13'510.5
2018-Apr-15 17:30N 53°07' E 004°20'510.2
2018-Apr-15 16:59N 53°11' E 004°26'510.0
2018-Apr-15 16:30N 53°15' E 004°29'34111.3
2018-Apr-14 10:24N 57°49' E 010°27'512.9
2018-Apr-14 10:00N 57°49' E 010°36'612.6
2018-Apr-14 09:30N 57°49' E 010°48'612.4
2018-Apr-14 09:00N 57°46' E 010°59'612.6
2018-Apr-14 08:30N 57°43' E 011°09'612.3
2018-Apr-14 08:00N 57°41' E 011°19'611.4
2018-Apr-14 07:30N 57°40' E 011°30'510.5
2018-Apr-14 07:00N 57°38' E 011°39'611.4
2018-Apr-14 06:30N 57°41' E 011°49'2 4.4
2018-Apr-14 05:58N 57°41' E 011°53'0 0.0
2018-Apr-14 05:28N 57°41' E 011°53'0 0.0
2018-Apr-14 04:58N 57°41' E 011°53'0 0.0
2018-Apr-14 04:28N 57°41' E 011°53'0 0.0
2018-Apr-14 03:58N 57°41' E 011°53'0 0.0
2018-Apr-14 03:28N 57°41' E 011°53'0 0.0
2018-Apr-14 02:58N 57°41' E 011°53'0 0.0
2018-Apr-14 02:28N 57°41' E 011°53'0 0.0
2018-Apr-14 01:58N 57°41' E 011°53'0 0.0
2018-Apr-14 01:28N 57°41' E 011°53'0 0.0
2018-Apr-14 00:58N 57°41' E 011°53'0 0.0
2018-Apr-14 00:28N 57°41' E 011°53'0 0.0
2018-Apr-13 23:58N 57°41' E 011°53'0 0.0
2018-Apr-13 23:28N 57°41' E 011°53'0 0.0
2018-Apr-13 22:58N 57°41' E 011°53'0 0.0
2018-Apr-13 22:25N 57°41' E 011°53'0 0.0
2018-Apr-13 21:58N 57°41' E 011°53'0 0.0
2018-Apr-13 21:28N 57°41' E 011°53'0 0.0
2018-Apr-13 20:58N 57°41' E 011°53'0 0.0
2018-Apr-13 20:28N 57°41' E 011°53'0 0.0
2018-Apr-13 19:58N 57°41' E 011°53'0 0.0
2018-Apr-13 19:25N 57°41' E 011°53'0 0.0
2018-Apr-13 18:58N 57°41' E 011°53'0 0.0
2018-Apr-13 18:28N 57°41' E 011°53'0 0.0
2018-Apr-13 17:58N 57°41' E 011°53'0 0.0
2018-Apr-13 17:28N 57°41' E 011°53'0 0.0
2018-Apr-13 16:58N 57°41' E 011°53'0 0.0
2018-Apr-13 16:28N 57°41' E 011°53'0 0.0
2018-Apr-13 15:58N 57°41' E 011°53'0 0.0
2018-Apr-13 15:28N 57°41' E 011°53'  
Track history (hours):
 
Tides and Currents Weather Stations Pressure Air Temp Water Temp Dewpoint Dewpoint Depression Visibility Wind Speed Wind Dir Waves Ship Positions

B Gas Master

Last reported at 2018-Apr-23 15:00 UTC. Time now 2018-Apr-23 15:22 UTC.
Position N 53°40' E 014°32'.

Length 88 m; draft 5.5 m.

Type: Ship (hazmat cat C). MMSI: 215389000.

Date/timePositionNaut miles runAvg speedWind from/ knotsBaromVisibWave heightAir tempDewpointWater temp
2018-Apr-23 15:00N 53°40' E 014°32'510.9
2018-Apr-23 14:30N 53°35' E 014°36'510.1
2018-Apr-23 13:59N 53°30' E 014°37'4 8.2
2018-Apr-23 13:29N 53°26' E 014°36'1 2.0
2018-Apr-23 12:56N 53°25' E 014°35'0 0.0
2018-Apr-23 12:26N 53°25' E 014°35'0 0.0
2018-Apr-23 11:59N 53°25' E 014°35'0 0.0
2018-Apr-23 11:26N 53°25' E 014°35'0 0.0
2018-Apr-23 10:56N 53°25' E 014°35'0 0.0
2018-Apr-23 10:26N 53°25' E 014°35'0 0.0
2018-Apr-23 09:56N 53°25' E 014°35'0 0.0
2018-Apr-23 09:26N 53°25' E 014°35'0 0.0
2018-Apr-23 08:56N 53°25' E 014°35'0 0.0
2018-Apr-23 08:26N 53°25' E 014°35'0 0.0
2018-Apr-23 07:56N 53°25' E 014°35'0 0.0
2018-Apr-23 07:26N 53°25' E 014°35'0 0.0
2018-Apr-23 06:56N 53°25' E 014°35'0 0.0
2018-Apr-23 06:26N 53°25' E 014°35'0 0.0
2018-Apr-23 05:59N 53°25' E 014°35'0 0.0
2018-Apr-23 05:29N 53°25' E 014°35'0 0.0
2018-Apr-23 04:59N 53°25' E 014°35'0 0.0
2018-Apr-23 04:29N 53°25' E 014°35'0 0.0
2018-Apr-23 03:59N 53°25' E 014°35'0 0.0
2018-Apr-23 03:26N 53°25' E 014°35'0 0.0
2018-Apr-23 02:56N 53°25' E 014°35'0 0.0
2018-Apr-23 02:26N 53°25' E 014°35'0 0.0
2018-Apr-23 01:56N 53°25' E 014°35'0 0.0
2018-Apr-23 01:29N 53°25' E 014°35'0 0.0
2018-Apr-23 00:59N 53°25' E 014°35'0 0.0
2018-Apr-23 00:29N 53°25' E 014°35'0 0.0
2018-Apr-22 23:56N 53°25' E 014°35'0 0.1
2018-Apr-22 23:27N 53°25' E 014°35'1 1.0
2018-Apr-22 22:57N 53°25' E 014°36'2 3.9
2018-Apr-22 22:27N 53°27' E 014°36'4 8.3
2018-Apr-22 21:57N 53°31' E 014°38'4 9.3
2018-Apr-22 21:30N 53°35' E 014°36'5 9.8
2018-Apr-22 21:01N 53°39' E 014°33'510.2
2018-Apr-22 20:30N 53°43' E 014°28'611.0
2018-Apr-22 20:00N 53°47' E 014°22'8310.6
2018-Apr-22 12:08N 55°02' E 013°17'411.5
2018-Apr-22 11:49N 55°04' E 013°12'411.6
2018-Apr-22 11:26N 55°07' E 013°07'711.6
2018-Apr-22 10:52N 55°11' E 012°57'411.3
2018-Apr-22 10:29N 55°14' E 012°52'511.2
2018-Apr-22 10:00N 55°17' E 012°44'5 9.3
2018-Apr-22 09:31N 55°20' E 012°39'610.9
2018-Apr-22 09:00N 55°26' E 012°40'510.9
2018-Apr-22 08:31N 55°31' E 012°42'5 9.6
2018-Apr-22 08:00N 55°36' E 012°42'510.0
2018-Apr-22 07:30N 55°41' E 012°41'611.6
2018-Apr-22 07:00N 55°47' E 012°42'611.1
2018-Apr-22 06:30N 55°52' E 012°40'611.2
2018-Apr-22 06:00N 55°58' E 012°38'611.2
2018-Apr-22 05:30N 56°03' E 012°38'611.7
2018-Apr-22 05:00N 56°07' E 012°30'4011.2
2018-Apr-22 01:26N 56°42' E 011°53'512.2
2018-Apr-22 00:59N 56°47' E 011°50'612.2
2018-Apr-22 00:27N 56°53' E 011°47'512.1
2018-Apr-22 00:00N 56°58' E 011°43'612.2
2018-Apr-21 23:30N 57°04' E 011°40'1012.1
2018-Apr-21 22:40N 57°14' E 011°34'212.0
2018-Apr-21 22:30N 57°15' E 011°32'612.1
2018-Apr-21 22:00N 57°21' E 011°28'612.1
2018-Apr-21 21:31N 57°27' E 011°25'611.9
2018-Apr-21 21:00N 57°32' E 011°22'611.8
2018-Apr-21 20:30N 57°38' E 011°19'611.3
2018-Apr-21 20:00N 57°44' E 011°18'611.7
2018-Apr-21 19:30N 57°49' E 011°16'611.5
2018-Apr-21 19:01N 57°55' E 011°14'510.9
2018-Apr-21 18:30N 58°00' E 011°12'510.4
2018-Apr-21 18:00N 58°06' E 011°13'510.4
2018-Apr-21 17:30N 58°11' E 011°13'510.2
2018-Apr-21 17:01N 58°16' E 011°15'510.2
2018-Apr-21 16:30N 58°19' E 011°22'3 0.1
2018-Apr-20 19:07N 58°21' E 011°26'0 2.2
2018-Apr-20 18:59N 58°21' E 011°26'4 8.6
2018-Apr-20 18:30N 58°19' E 011°20'611.4
2018-Apr-20 18:00N 58°14' E 011°13'2 5.0
2018-Apr-20 17:30N 58°12' E 011°13'0 0.4
2018-Apr-20 17:00N 58°12' E 011°13'0 0.0
2018-Apr-20 16:30N 58°12' E 011°13'0 0.0
2018-Apr-20 16:00N 58°12' E 011°13'0 0.0
2018-Apr-20 15:30N 58°12' E 011°13'0 0.0
2018-Apr-20 15:00N 58°12' E 011°13'0 0.0
2018-Apr-20 14:30N 58°12' E 011°13'0 0.0
2018-Apr-20 14:00N 58°12' E 011°13'0 0.0
2018-Apr-20 13:30N 58°12' E 011°13'0 0.0
2018-Apr-20 12:59N 58°12' E 011°13'0 0.0
2018-Apr-20 12:30N 58°12' E 011°13'0 0.0
2018-Apr-20 12:00N 58°12' E 011°13'0 0.0
2018-Apr-20 11:30N 58°12' E 011°13'0 0.0
2018-Apr-20 11:00N 58°12' E 011°13'0 0.0
2018-Apr-20 10:26N 58°12' E 011°13'0 0.0
2018-Apr-20 10:00N 58°12' E 011°13'0 0.0
2018-Apr-20 09:30N 58°12' E 011°13'0 0.0
2018-Apr-20 09:00N 58°12' E 011°13'0 0.0
2018-Apr-20 08:30N 58°12' E 011°13'0 0.0
2018-Apr-20 08:00N 58°12' E 011°13'0 0.0
2018-Apr-20 07:30N 58°12' E 011°13'0 0.0
2018-Apr-20 07:00N 58°12' E 011°13'0 0.0
2018-Apr-20 06:30N 58°12' E 011°13'0 0.0
2018-Apr-20 05:59N 58°12' E 011°13'0 0.0
2018-Apr-20 05:29N 58°12' E 011°13'0 0.0
2018-Apr-20 05:00N 58°12' E 011°13'0 0.0
2018-Apr-20 04:30N 58°12' E 011°13'0 0.0
2018-Apr-20 04:00N 58°12' E 011°13'0 0.0
2018-Apr-20 03:30N 58°12' E 011°13'0 0.0
2018-Apr-20 03:00N 58°12' E 011°13'0 0.0
2018-Apr-20 02:30N 58°12' E 011°13'0 0.0
2018-Apr-20 02:00N 58°12' E 011°13'0 0.0
2018-Apr-20 01:30N 58°12' E 011°13'0 0.0
2018-Apr-20 00:59N 58°12' E 011°13'0 0.0
2018-Apr-20 00:30N 58°12' E 011°13'0 0.0
2018-Apr-20 00:00N 58°12' E 011°13'0 0.0
2018-Apr-19 23:30N 58°12' E 011°13'0 0.0
2018-Apr-19 23:00N 58°12' E 011°13'0 0.0
2018-Apr-19 22:30N 58°12' E 011°13'0 0.0
2018-Apr-19 22:00N 58°12' E 011°13'0 0.0
2018-Apr-19 21:30N 58°12' E 011°13'0 0.0
2018-Apr-19 21:00N 58°12' E 011°13'0 0.0
2018-Apr-19 20:30N 58°12' E 011°13'0 0.0
2018-Apr-19 20:00N 58°12' E 011°13'0 0.0
2018-Apr-19 19:30N 58°12' E 011°13'0 0.0
2018-Apr-19 19:00N 58°12' E 011°13'0 0.0
2018-Apr-19 18:30N 58°12' E 011°13'0 0.0
2018-Apr-19 18:00N 58°12' E 011°13'0 0.0
2018-Apr-19 17:30N 58°12' E 011°13'0 0.0
2018-Apr-19 17:00N 58°12' E 011°13'0 0.0
2018-Apr-19 16:30N 58°12' E 011°13'0 0.0
2018-Apr-19 16:00N 58°12' E 011°13'0 0.0
2018-Apr-19 15:30N 58°12' E 011°13'0 0.0
2018-Apr-19 15:00N 58°12' E 011°13'0 0.0
2018-Apr-19 14:30N 58°12' E 011°13'0 0.0
2018-Apr-19 14:00N 58°12' E 011°13'0 0.0
2018-Apr-19 13:30N 58°12' E 011°13'0 0.0
2018-Apr-19 13:00N 58°12' E 011°13'0 0.0
2018-Apr-19 12:30N 58°12' E 011°13'0 0.0
2018-Apr-19 12:00N 58°12' E 011°13'0 0.0
2018-Apr-19 11:30N 58°12' E 011°13'0 0.0
2018-Apr-19 11:00N 58°12' E 011°13'0 0.4
2018-Apr-19 10:30N 58°12' E 011°13'4 7.7
2018-Apr-19 10:00N 58°11' E 011°06'611.6
2018-Apr-19 09:30N 58°08' E 010°56'611.4
2018-Apr-19 09:00N 58°05' E 010°48'612.4
2018-Apr-19 08:30N 58°02' E 010°38'612.7
2018-Apr-19 08:00N 57°58' E 010°28'612.9
2018-Apr-19 07:30N 57°55' E 010°18'612.7
2018-Apr-19 07:00N 57°51' E 010°08'612.3
2018-Apr-19 06:30N 57°46' E 010°01'612.4
2018-Apr-19 06:00N 57°45' E 009°50'812.8
2018-Apr-19 05:24N 57°40' E 009°37'712.7
2018-Apr-19 04:50N 57°36' E 009°27'612.5
2018-Apr-19 04:21N 57°33' E 009°17'512.7
2018-Apr-19 03:57N 57°30' E 009°09'1412.9
2018-Apr-19 02:50N 57°22' E 008°47'11212.3
2018-Apr-18 17:41N 55°48' E 006°54'312.7
2018-Apr-18 17:28N 55°46' E 006°52'1012.4
2018-Apr-18 16:39N 55°37' E 006°43'312.3
2018-Apr-18 16:25N 55°34' E 006°40'12912.5
2018-Apr-18 06:02N 53°41' E 004°53'113.3
2018-Apr-18 06:00N 53°40' E 004°53'713.7
2018-Apr-18 05:30N 53°34' E 004°48'713.3
2018-Apr-18 05:00N 53°28' E 004°44'713.3
2018-Apr-18 04:30N 53°22' E 004°40'713.1
2018-Apr-18 03:59N 53°16' E 004°35'613.0
2018-Apr-18 03:30N 53°10' E 004°30'612.4
2018-Apr-18 03:00N 53°05' E 004°25'612.1
2018-Apr-18 02:30N 52°60' E 004°20'612.0
2018-Apr-18 02:00N 52°54' E 004°16'611.6
2018-Apr-18 01:30N 52°49' E 004°11'611.5
2018-Apr-18 00:58N 52°44' E 004°06'611.4
2018-Apr-18 00:28N 52°39' E 003°60'511.3
2018-Apr-18 00:00N 52°35' E 003°54'2410.5
2018-Apr-17 21:45N 52°17' E 003°30'310.5
2018-Apr-17 21:29N 52°14' E 003°29'2410.9
2018-Apr-17 19:18N 51°51' E 003°21'411.9
2018-Apr-17 18:58N 51°47' E 003°18'510.6
2018-Apr-17 18:27N 51°42' E 003°17'612.4
2018-Apr-17 17:59N 51°37' E 003°22'613.2
2018-Apr-17 17:30N 51°31' E 003°26'713.1
2018-Apr-17 17:00N 51°27' E 003°33'4 8.2
2018-Apr-17 16:30N 51°27' E 003°40'511.0
2018-Apr-17 16:00N 51°22' E 003°45'611.2
2018-Apr-17 15:30N 51°22' E 003°54'5 9.8
2018-Apr-17 15:00N 51°26' E 003°58'3 6.9
2018-Apr-17 14:30N 51°23' E 004°02'4 7.4
2018-Apr-17 14:00N 51°22' E 004°08'3 6.2
2018-Apr-17 13:30N 51°22' E 004°13'3 6.3
2018-Apr-17 13:01N 51°21' E 004°17'0 0.0
2018-Apr-17 12:30N 51°21' E 004°17'0 0.0
2018-Apr-17 12:00N 51°21' E 004°17'0 0.0
2018-Apr-17 11:31N 51°21' E 004°17'1 1.5
2018-Apr-17 11:00N 51°20' E 004°18'3 5.5
2018-Apr-17 10:30N 51°18' E 004°20'2 3.9
2018-Apr-17 10:00N 51°16' E 004°20'0 0.1
2018-Apr-17 09:30N 51°16' E 004°20'0 0.0
2018-Apr-17 09:01N 51°16' E 004°20'0 0.0
2018-Apr-17 08:31N 51°16' E 004°20'0 0.0
2018-Apr-17 07:58N 51°16' E 004°20'0 0.0
2018-Apr-17 07:31N 51°16' E 004°20'0 0.0
2018-Apr-17 06:54N 51°16' E 004°20'0 0.0
2018-Apr-17 06:30N 51°16' E 004°20'0 0.0
2018-Apr-17 06:01N 51°16' E 004°20'0 0.0
2018-Apr-17 05:31N 51°16' E 004°20'0 0.0
2018-Apr-17 05:01N 51°16' E 004°20'0 0.0
2018-Apr-17 04:31N 51°16' E 004°20'0 0.0
2018-Apr-17 04:00N 51°16' E 004°20'0 0.0
2018-Apr-17 03:30N 51°16' E 004°20'0 0.0
2018-Apr-17 03:01N 51°16' E 004°20'0 0.0
2018-Apr-17 02:28N 51°16' E 004°20'0 0.0
2018-Apr-17 02:01N 51°16' E 004°20'0 0.0
2018-Apr-17 01:28N 51°16' E 004°20'0 0.0
2018-Apr-17 01:00N 51°16' E 004°20'0 0.0
2018-Apr-17 00:31N 51°16' E 004°20'0 0.0
2018-Apr-16 23:52N 51°16' E 004°20'0 0.0
2018-Apr-16 23:27N 51°16' E 004°20'0 0.0
2018-Apr-16 23:01N 51°16' E 004°20'0 0.0
2018-Apr-16 22:27N 51°16' E 004°20'0 0.0
2018-Apr-16 22:00N 51°16' E 004°20'0 0.0
2018-Apr-16 21:28N 51°16' E 004°20'0 0.0
2018-Apr-16 21:00N 51°16' E 004°20'0 0.0
2018-Apr-16 20:31N 51°16' E 004°20'0 0.0
2018-Apr-16 20:01N 51°16' E 004°20'0 0.0
2018-Apr-16 19:30N 51°16' E 004°20'0 0.0
2018-Apr-16 18:57N 51°16' E 004°20'0 0.0
2018-Apr-16 18:31N 51°16' E 004°20'0 0.0
2018-Apr-16 17:54N 51°16' E 004°20'1 2.4
2018-Apr-16 17:30N 51°17' E 004°20'0 0.0
2018-Apr-16 17:00N 51°17' E 004°20'1 2.2
2018-Apr-16 16:30N 51°17' E 004°19'3 6.6
2018-Apr-16 16:00N 51°20' E 004°16'5 9.3
2018-Apr-16 15:30N 51°23' E 004°10'510.2
2018-Apr-16 14:59N 51°24' E 004°02'3 5.7
2018-Apr-16 14:29N 51°24' E 003°57'511.6
2018-Apr-16 14:00N 51°21' E 003°50'611.3
2018-Apr-16 13:30N 51°23' E 003°42'5 9.8
2018-Apr-16 13:00N 51°26' E 003°35'4 8.7
2018-Apr-16 12:30N 51°29' E 003°30'5 9.6
2018-Apr-16 12:00N 51°33' E 003°25'5 9.3
2018-Apr-16 11:30N 51°37' E 003°22'610.9
2018-Apr-16 10:55N 51°43' E 003°18'4 2.8
2018-Apr-16 09:36N 51°46' E 003°20'0 0.0
2018-Apr-16 09:18N 51°46' E 003°20'0 0.0
2018-Apr-16 08:59N 51°46' E 003°20'0 0.0
2018-Apr-16 08:29N 51°46' E 003°20'0 0.0
2018-Apr-16 07:35N 51°46' E 003°20'0 0.5
2018-Apr-16 07:29N 51°46' E 003°20'0 0.2
2018-Apr-16 07:01N 51°46' E 003°20'0 0.0
2018-Apr-16 06:27N 51°46' E 003°20'0 0.0
2018-Apr-16 05:53N 51°46' E 003°20'0 0.0
2018-Apr-16 05:27N 51°46' E 003°20'0 0.0
2018-Apr-16 04:57N 51°46' E 003°20'0 0.0
2018-Apr-16 04:30N 51°46' E 003°20'0 0.0
2018-Apr-16 03:58N 51°46' E 003°20'0 0.0
2018-Apr-16 03:23N 51°46' E 003°20'0 0.0
2018-Apr-16 02:51N 51°46' E 003°20'0 0.0
2018-Apr-16 02:28N 51°46' E 003°20'0 0.1
2018-Apr-16 01:40N 51°46' E 003°20'1 4.3
2018-Apr-16 01:30N 51°46' E 003°19'7 9.7
2018-Apr-16 00:45N 51°54' E 003°18'310.3
2018-Apr-16 00:25N 51°57' E 003°19'510.9
2018-Apr-15 23:59N 52°02' E 003°20'6611.8
2018-Apr-15 18:23N 53°01' E 004°07'511.1
2018-Apr-15 17:58N 53°04' E 004°13'510.5
2018-Apr-15 17:30N 53°07' E 004°20'510.2
2018-Apr-15 16:59N 53°11' E 004°26'510.0
2018-Apr-15 16:30N 53°15' E 004°29'34111.3
2018-Apr-14 10:24N 57°49' E 010°27'512.9
2018-Apr-14 10:00N 57°49' E 010°36'612.6
2018-Apr-14 09:30N 57°49' E 010°48'612.4
2018-Apr-14 09:00N 57°46' E 010°59'612.6
2018-Apr-14 08:30N 57°43' E 011°09'612.3
2018-Apr-14 08:00N 57°41' E 011°19'611.4
2018-Apr-14 07:30N 57°40' E 011°30'510.5
2018-Apr-14 07:00N 57°38' E 011°39'611.4
2018-Apr-14 06:30N 57°41' E 011°49'2 4.4
2018-Apr-14 05:58N 57°41' E 011°53'0 0.0
2018-Apr-14 05:28N 57°41' E 011°53'0 0.0
2018-Apr-14 04:58N 57°41' E 011°53'0 0.0
2018-Apr-14 04:28N 57°41' E 011°53'0 0.0
2018-Apr-14 03:58N 57°41' E 011°53'0 0.0
2018-Apr-14 03:28N 57°41' E 011°53'0 0.0
2018-Apr-14 02:58N 57°41' E 011°53'0 0.0
2018-Apr-14 02:28N 57°41' E 011°53'0 0.0
2018-Apr-14 01:58N 57°41' E 011°53'0 0.0
2018-Apr-14 01:28N 57°41' E 011°53'0 0.0
2018-Apr-14 00:58N 57°41' E 011°53'0 0.0
2018-Apr-14 00:28N 57°41' E 011°53'0 0.0
2018-Apr-13 23:58N 57°41' E 011°53'0 0.0
2018-Apr-13 23:28N 57°41' E 011°53'0 0.0
2018-Apr-13 22:58N 57°41' E 011°53'0 0.0
2018-Apr-13 22:25N 57°41' E 011°53'0 0.0
2018-Apr-13 21:58N 57°41' E 011°53'0 0.0
2018-Apr-13 21:28N 57°41' E 011°53'0 0.0
2018-Apr-13 20:58N 57°41' E 011°53'0 0.0
2018-Apr-13 20:28N 57°41' E 011°53'0 0.0
2018-Apr-13 19:58N 57°41' E 011°53'0 0.0
2018-Apr-13 19:25N 57°41' E 011°53'0 0.0
2018-Apr-13 18:58N 57°41' E 011°53'0 0.0
2018-Apr-13 18:28N 57°41' E 011°53'0 0.0
2018-Apr-13 17:58N 57°41' E 011°53'0 0.0
2018-Apr-13 17:28N 57°41' E 011°53'0 0.0
2018-Apr-13 16:58N 57°41' E 011°53'0 0.0
2018-Apr-13 16:28N 57°41' E 011°53'0 0.0
2018-Apr-13 15:58N 57°41' E 011°53'0 0.0
2018-Apr-13 15:28N 57°41' E 011°53'  

Dump ship's entire track history